Terminal Aerodrome Forecast
Issued by NWS

Home | Current Version | Previous Version | Text Only | Print | Product List | Glossary On
Versions: 1 2 3 4 5 6 7 8 9 10 11 12 13 14 15 16 17 18 19
000
FTUS42 KKEY 291925 AAA
TAFMTH
TAF AMD
KMTH 291925Z 2919/3018 11006KT P6SM FEW029
     FM292100 13007KT P6SM SCT020 BKN080
     FM292300 11007KT P6SM SCT029
     FM301500 15009KT P6SM FEW029=

USA.gov is the U.S. government's official web portal to all federal, state and local government web resources and services.